INFORMAÇÕES DO AERODROMO
Icao Aerodromo NTAA Nome do Aerodromo Faa'a International Airport Cidade Papeete
Código GPS NTAA Elevação Média 5 ft Tipo de Aerodromo Aeroporto Médio Porte

INFORMAÇÃO DE PISTA
Pista 04 Comprimento da Pista 11360 ft Largura da Pista 148 ft
Elevação da Pista 5 ft Distância de Area de Escape da Pista 1120 ft Orientação da Pista 54
Pista 22 Comprimento da Pista 11360 ft Largura da Pista 148 ft
Elevação da Pista 5 ft Distância de Area de Escape da Pista 390 ft Orientação da Pista 234

FREQUÊNCIAS DO AERODROMO
Tipo APP Nome APP Frequência 118.1 MHZ
Tipo ATIS Nome ATIS Frequência 128.8 MHZ
Tipo GND Nome GND Frequência 121.9 MHZ
Tipo TWR Nome TWR Frequência 118.1 MHZ

INFORMAÇÕES DE NAVEGAÇÃO PRÓXIMO AO AERODROMO
Tipo NDB Nome Tahiti Faaa Frequência 305 KHZ
Tipo VOR-DME Nome Tahiti Faaa Frequência 112900 KHZ

Informações de Meteorologia(METAR atual)
METAR DE NTAA
ADDS - METARS form results

(1833 UTC 22 June 2018)
Data provider http://aviationweather.gov/adds/metars/
 
METAR text: NTAA 221830Z 21003KT 170V230 9999 FEW023 27/20 Q1016 NOSIG
Conditions at: NTAA (TAHITI-FAAA POLY, WS) observed 1830 UTC 22 June 2018
Temperature: 27.0°C (81°F)
Dewpoint: 20.0°C (68°F) [RH = 66%]
Pressure (altimeter): 30.00 inches Hg (1016.0 mb)
Winds: from the SSW (210 degrees) at 3 MPH (3 knots; 1.6 m/s)
Visibility: 6 or more miles (10+ km)
Ceiling: at least 12,000 feet AGL
Clouds: few clouds at 2300 feet AGL
Weather: no significant weather observed at this time

METAR text: NTAA 221800Z 12004KT 080V200 9999 FEW023 27/20 Q1016 NOSIG
Conditions at: NTAA (TAHITI-FAAA POLY, WS) observed 1800 UTC 22 June 2018
Temperature: 27.0°C (81°F)
Dewpoint: 20.0°C (68°F) [RH = 66%]
Pressure (altimeter): 30.00 inches Hg (1016.0 mb)
Winds: from the ESE (120 degrees) at 5 MPH (4 knots; 2.1 m/s)
Visibility: 6 or more miles (10+ km)
Ceiling: at least 12,000 feet AGL
Clouds: few clouds at 2300 feet AGL
Weather: no significant weather observed at this time

Forecast for: NTAA (TAHITI-FAAA POLY, WS)
Text: TAF NTAA 221700Z 2218/2324 VRB05KT 9999 FEW023 SCT050
Forecast period: 1800 UTC 22 June 2018 to 0000 UTC 24 June 2018
Forecast type: FROM: standard forecast or significant change
Winds: variable direction winds at 6 MPH (5 knots; 2.6 m/s)
Visibility: 6 or more miles (10+ km)
Clouds: few clouds at 2300 feet AGL
scattered clouds at 5000 feet AGL
Weather: no significant weather forecast for this period
Text: TEMPO 2220/2303 06012KT
Forecast period: 2000 UTC 22 June 2018 to 0300 UTC 23 June 2018
Forecast type: TEMPORARY: The following changes expected for less than half the time period
Winds: from the ENE (60 degrees) at 14 MPH (12 knots; 6.2 m/s)
Weather: no significant weather forecast for this period

MAPA DO AERODROMO


Desenvolvido por Virtual Airlines Manager




Modificado por Servidor Brasil Amigos